Time;durP1;ratioP1;P1;durP2;ratioP2;P2;SDS_P1;SDS_P2;PMS_P1;PMS_P2;Temp;Humidity;BMP_temperature;BMP_pressure;BME280_temperature;BME280_humidity;BME280_pressure;Samples;Min_cycle;Max_cycle;Signal;HPM_P1;HPM_P2
2022/01/15 00:02:10;;;;;;;0.28;0.00;;;6.90;99.90;;;;;;5036369;28;20033;-87
2022/01/15 00:04:36;;;;;;;0.15;0.15;;;7.20;99.90;;;;;;5052972;28;20114;-87
2022/01/15 00:07:02;;;;;;;1.52;0.30;;;6.80;99.90;;;;;;5036721;28;20103;-87
2022/01/15 00:09:27;;;;;;;0.08;0.08;;;6.80;99.90;;;;;;5036453;28;20060;-87
2022/01/15 00:11:53;;;;;;;0.10;0.10;;;6.90;99.90;;;;;;5036466;28;20052;-87
2022/01/15 00:14:26;;;;;;;0.00;0.00;;;6.90;99.90;;;;;;5053106;28;20049;-87
2022/01/15 00:16:57;;;;;;;0.00;0.00;;;7.20;99.90;;;;;;5053463;28;20057;-87
2022/01/15 00:19:40;;;;;;;0.00;0.00;;;6.80;99.90;;;;;;5053137;28;20052;-87
2022/01/15 00:22:15;;;;;;;0.00;0.00;;;7.10;99.90;;;;;;5036165;28;20084;-87
2022/01/15 00:24:41;;;;;;;0.00;0.00;;;6.80;99.90;;;;;;5036180;28;20051;-87
2022/01/15 00:27:08;;;;;;;0.00;0.00;;;6.80;99.90;;;;;;5052727;28;20102;-87
2022/01/15 00:29:34;;;;;;;0.00;0.00;;;6.80;99.90;;;;;;5036128;28;20068;-87
2022/01/15 00:32:01;;;;;;;0.00;0.00;;;6.80;99.90;;;;;;5036003;28;20085;-87
2022/01/15 00:34:28;;;;;;;0.50;0.20;;;6.80;99.90;;;;;;5035953;28;20048;-87
2022/01/15 00:36:54;;;;;;;0.00;0.00;;;7.10;99.90;;;;;;5052737;28;20037;-87
2022/01/15 00:39:20;;;;;;;0.00;0.00;;;7.30;99.90;;;;;;5035949;28;20092;-87
2022/01/15 00:41:49;;;;;;;0.00;0.00;;;6.90;99.90;;;;;;5035889;28;20377;-87
2022/01/15 00:44:15;;;;;;;0.00;0.00;;;6.80;99.90;;;;;;5036007;28;20052;-87
2022/01/15 00:46:46;;;;;;;0.20;0.20;;;7.10;99.90;;;;;;5052645;28;20067;-87
2022/01/15 00:49:12;;;;;;;0.00;0.00;;;6.90;99.90;;;;;;5035897;28;20064;-87
2022/01/15 00:51:38;;;;;;;0.10;0.05;;;6.90;99.90;;;;;;5052494;28;20048;-87
2022/01/15 00:54:04;;;;;;;0.13;0.00;;;6.90;99.90;;;;;;5052388;28;20095;-87
2022/01/15 00:56:33;;;;;;;0.00;0.00;;;6.80;99.90;;;;;;5035530;28;20037;-87
2022/01/15 00:58:59;;;;;;;0.00;0.00;;;6.80;99.90;;;;;;5052251;28;20044;-87
2022/01/15 01:01:25;;;;;;;0.10;0.10;;;6.80;99.90;;;;;;5035794;28;20044;-87
2022/01/15 01:03:53;;;;;;;0.00;0.00;;;6.80;99.90;;;;;;5051917;28;20077;-87
2022/01/15 01:06:19;;;;;;;0.00;0.00;;;6.70;99.90;;;;;;5035193;28;20107;-87
2022/01/15 01:08:45;;;;;;;0.00;0.00;;;6.80;99.90;;;;;;5035842;28;20476;-87
2022/01/15 01:11:15;;;;;;;0.50;0.10;;;7.10;99.90;;;;;;5052728;28;20045;-87
2022/01/15 01:24:25;;;;;;;0.00;0.00;;;6.70;99.90;;;;;;5052258;28;20053;-87
2022/01/15 01:27:01;;;;;;;0.00;0.00;;;6.70;99.90;;;;;;5035707;28;20396;-87
2022/01/15 01:34:27;;;;;;;0.17;0.17;;;6.80;99.90;;;;;;5052203;28;20135;-87
2022/01/15 01:39:46;;;;;;;0.00;0.00;;;6.80;99.90;;;;;;5052319;28;20106;-87
2022/01/15 01:45:12;;;;;;;0.00;0.00;;;6.80;99.90;;;;;;5053790;28;20092;-87
2022/01/15 01:47:40;;;;;;;0.00;0.00;;;6.70;99.90;;;;;;5039961;28;20045;-87
2022/01/15 01:50:23;;;;;;;0.00;0.00;;;6.70;99.90;;;;;;5056173;28;20080;-87
2022/01/15 01:52:51;;;;;;;0.00;0.00;;;6.70;99.90;;;;;;5039510;28;20190;-87
2022/01/15 01:55:19;;;;;;;0.00;0.00;;;6.70;99.90;;;;;;5055760;28;20131;-87
2022/01/15 01:57:45;;;;;;;0.00;0.00;;;6.70;99.90;;;;;;5039062;28;20052;-87
2022/01/15 02:00:14;;;;;;;0.13;0.13;;;6.70;99.90;;;;;;5039257;28;20048;-87
2022/01/15 02:02:40;;;;;;;0.03;0.03;;;6.70;99.90;;;;;;5038752;28;20052;-87
2022/01/15 02:05:06;;;;;;;0.00;0.00;;;6.70;99.90;;;;;;5038287;28;20057;-87
2022/01/15 02:07:32;;;;;;;0.10;0.10;;;6.70;99.90;;;;;;5038986;28;20056;-87
2022/01/15 02:09:58;;;;;;;0.50;0.28;;;6.70;99.90;;;;;;5055534;28;20496;-87
2022/01/15 02:12:24;;;;;;;0.00;0.00;;;6.70;99.90;;;;;;5038184;28;20090;-87
2022/01/15 02:14:50;;;;;;;0.00;0.00;;;6.70;99.90;;;;;;5055525;28;20045;-87
2022/01/15 02:17:19;;;;;;;0.00;0.00;;;6.70;99.90;;;;;;5038741;28;20045;-87
2022/01/15 02:20:08;;;;;;;0.10;0.10;;;6.80;99.90;;;;;;5055576;28;20049;-87
2022/01/15 02:25:15;;;;;;;0.00;0.00;;;6.80;99.90;;;;;;5055167;28;20049;-87
2022/01/15 02:27:41;;;;;;;0.00;0.00;;;6.70;99.90;;;;;;5038611;28;20060;-86
2022/01/15 02:30:07;;;;;;;0.00;0.00;;;6.80;99.90;;;;;;5054982;28;20048;-87
2022/01/15 02:32:34;;;;;;;0.10;0.10;;;6.70;99.90;;;;;;5037893;28;20053;-87
2022/01/15 02:35:01;;;;;;;3.30;0.75;;;6.70;99.90;;;;;;5038401;28;20114;-87
2022/01/15 02:37:28;;;;;;;0.00;0.00;;;6.70;99.90;;;;;;5055391;28;20041;-87
2022/01/15 02:39:55;;;;;;;0.00;0.00;;;6.70;99.90;;;;;;5039077;28;20052;-87
2022/01/15 02:42:23;;;;;;;1.45;0.00;;;6.70;99.90;;;;;;5037967;28;20144;-87
2022/01/15 02:44:48;;;;;;;0.22;0.10;;;6.70;99.90;;;;;;5037782;28;20065;-87
2022/01/15 02:49:58;;;;;;;0.00;0.00;;;6.70;99.90;;;;;;5055009;28;20059;-87
2022/01/15 02:52:24;;;;;;;0.05;0.05;;;6.70;99.90;;;;;;5054196;28;20048;-87
2022/01/15 02:54:50;;;;;;;0.00;0.00;;;6.70;99.90;;;;;;5054862;28;20033;-87
2022/01/15 02:57:15;;;;;;;0.00;0.00;;;6.70;99.90;;;;;;5054956;28;20435;-87
2022/01/15 02:59:41;;;;;;;0.00;0.00;;;6.70;99.90;;;;;;5037718;28;20507;-87
2022/01/15 03:02:07;;;;;;;0.40;0.25;;;6.80;99.90;;;;;;5037545;28;20369;-87
2022/01/15 03:04:32;;;;;;;0.17;0.17;;;6.70;99.90;;;;;;5037632;28;20135;-87
2022/01/15 03:06:58;;;;;;;0.10;0.00;;;6.70;99.90;;;;;;5054539;28;20500;-87
2022/01/15 03:09:24;;;;;;;0.00;0.00;;;6.70;99.90;;;;;;5037624;28;20049;-87
2022/01/15 03:11:50;;;;;;;0.10;0.10;;;6.70;99.90;;;;;;5037481;28;20049;-87
2022/01/15 03:14:19;;;;;;;0.35;0.00;;;6.70;99.90;;;;;;5053885;28;20126;-87
2022/01/15 03:16:45;;;;;;;0.00;0.00;;;6.70;99.90;;;;;;5054253;28;20485;-87
2022/01/15 03:19:10;;;;;;;0.00;0.00;;;6.70;99.90;;;;;;5037131;28;20103;-87
2022/01/15 03:21:36;;;;;;;0.00;0.00;;;6.70;99.90;;;;;;5037600;28;20076;-87
2022/01/15 03:24:03;;;;;;;1.08;0.20;;;6.60;99.90;;;;;;5037693;28;20049;-87
2022/01/15 03:26:28;;;;;;;0.10;0.10;;;6.60;99.90;;;;;;5037453;28;20052;-87
2022/01/15 03:28:54;;;;;;;0.00;0.00;;;6.60;99.90;;;;;;5037686;28;20053;-87
2022/01/15 03:31:20;;;;;;;0.10;0.00;;;6.60;99.90;;;;;;5053928;28;20082;-87
2022/01/15 03:33:45;;;;;;;0.00;0.00;;;6.90;99.90;;;;;;5037269;28;20103;-87
2022/01/15 03:36:11;;;;;;;0.20;0.20;;;6.60;99.90;;;;;;5036787;28;20037;-87
2022/01/15 03:38:37;;;;;;;0.00;0.00;;;6.60;99.90;;;;;;5053850;28;20420;-87
2022/01/15 03:41:03;;;;;;;0.00;0.00;;;6.70;99.90;;;;;;5037091;28;20041;-87
2022/01/15 03:43:29;;;;;;;0.00;0.00;;;7.00;99.90;;;;;;5037057;28;20044;-87
2022/01/15 03:45:55;;;;;;;0.00;0.00;;;6.80;99.90;;;;;;5053493;28;20476;-86
2022/01/15 03:48:21;;;;;;;0.00;0.00;;;6.80;99.90;;;;;;5036773;28;20508;-87
2022/01/15 03:50:46;;;;;;;0.00;0.00;;;6.70;99.90;;;;;;5037016;28;20049;-87
2022/01/15 03:53:12;;;;;;;0.20;0.00;;;6.60;99.90;;;;;;5037113;28;20059;-87
2022/01/15 03:55:38;;;;;;;0.00;0.00;;;6.70;99.90;;;;;;5036658;28;20459;-87
2022/01/15 03:58:06;;;;;;;0.00;0.00;;;6.60;99.90;;;;;;5053528;28;20500;-87
2022/01/15 04:00:31;;;;;;;0.00;0.00;;;6.60;99.90;;;;;;5036733;28;20049;-87
2022/01/15 04:02:58;;;;;;;0.00;0.00;;;6.60;99.90;;;;;;5036593;28;20072;-87
2022/01/15 04:05:24;;;;;;;0.00;0.00;;;6.60;99.90;;;;;;5036767;28;20048;-87
2022/01/15 04:07:50;;;;;;;0.00;0.00;;;6.80;99.90;;;;;;5036371;28;20049;-87
2022/01/15 04:10:16;;;;;;;0.28;0.10;;;6.70;99.90;;;;;;5052675;28;20489;-87
2022/01/15 04:12:43;;;;;;;0.00;0.00;;;6.40;99.90;;;;;;5053330;28;20057;-87
2022/01/15 04:15:13;;;;;;;0.00;0.00;;;6.60;99.90;;;;;;5053127;28;20135;-87
2022/01/15 04:17:40;;;;;;;0.00;0.00;;;6.70;99.90;;;;;;5053348;28;20088;-87
2022/01/15 04:20:09;;;;;;;0.10;0.00;;;7.30;99.90;;;;;;5036553;28;20049;-87
2022/01/15 04:22:35;;;;;;;0.10;0.10;;;6.60;99.90;;;;;;5035908;28;20071;-87
2022/01/15 04:25:00;;;;;;;2.17;0.00;;;6.60;99.90;;;;;;5036097;28;20037;-87
2022/01/15 04:27:26;;;;;;;0.00;0.00;;;6.60;99.90;;;;;;5036397;28;20049;-87
2022/01/15 04:29:56;;;;;;;0.00;0.00;;;6.50;99.90;;;;;;5052216;28;20456;-87
2022/01/15 04:32:22;;;;;;;0.10;0.10;;;6.60;99.90;;;;;;5036247;28;20041;-87
2022/01/15 04:34:48;;;;;;;0.00;0.00;;;6.70;99.90;;;;;;5035644;28;20052;-87
2022/01/15 04:37:18;;;;;;;0.00;0.00;;;6.70;99.90;;;;;;5052424;28;20048;-87
2022/01/15 04:39:45;;;;;;;1.10;0.00;;;6.90;99.90;;;;;;5037031;28;20064;-87
2022/01/15 04:42:12;;;;;;;0.00;0.00;;;6.60;99.90;;;;;;5052392;28;20049;-87
2022/01/15 04:44:38;;;;;;;0.00;0.00;;;6.50;99.90;;;;;;5052272;28;20049;-87
2022/01/15 04:47:04;;;;;;;0.20;0.20;;;6.60;99.90;;;;;;5052510;28;20040;-87
2022/01/15 04:49:31;;;;;;;0.00;0.00;;;6.50;99.90;;;;;;5035834;28;20071;-87
2022/01/15 04:51:58;;;;;;;0.00;0.00;;;6.30;99.90;;;;;;5035972;28;20110;-87
2022/01/15 04:54:24;;;;;;;0.00;0.00;;;6.50;99.90;;;;;;5036194;28;20477;-87
2022/01/15 04:56:50;;;;;;;0.00;0.00;;;6.50;99.90;;;;;;5035917;28;20049;-87
2022/01/15 04:59:15;;;;;;;0.10;0.10;;;6.50;99.90;;;;;;5051991;28;20076;-87
2022/01/15 05:01:41;;;;;;;0.00;0.00;;;6.60;99.90;;;;;;5035985;28;20090;-87
2022/01/15 05:04:07;;;;;;;0.00;0.00;;;6.60;99.90;;;;;;5052555;28;20079;-87
2022/01/15 05:06:33;;;;;;;0.00;0.00;;;6.50;99.90;;;;;;5035662;28;20053;-87
2022/01/15 05:09:06;;;;;;;0.85;0.75;;;6.50;99.90;;;;;;5035992;28;20045;-87
2022/01/15 05:11:45;;;;;;;0.00;0.00;;;6.50;99.90;;;;;;5052234;28;20112;-87
2022/01/15 05:14:13;;;;;;;0.00;0.00;;;6.50;99.90;;;;;;5053038;28;20045;-87
2022/01/15 05:16:38;;;;;;;0.10;0.00;;;6.50;99.90;;;;;;5052727;28;20051;-87
2022/01/15 05:19:05;;;;;;;0.90;0.43;;;6.50;99.90;;;;;;5052712;28;20467;-87
2022/01/15 05:21:31;;;;;;;0.00;0.00;;;6.50;99.90;;;;;;5039602;28;20080;-87
2022/01/15 05:23:57;;;;;;;0.05;0.05;;;6.10;99.90;;;;;;5039661;28;20053;-87
2022/01/15 05:26:23;;;;;;;0.08;0.08;;;6.50;99.90;;;;;;5039682;28;20056;-87
2022/01/15 05:28:49;;;;;;;0.00;0.00;;;6.60;99.90;;;;;;5039172;28;20400;-87
2022/01/15 05:31:14;;;;;;;0.00;0.00;;;6.50;99.90;;;;;;5039634;28;20041;-87
2022/01/15 05:33:40;;;;;;;0.00;0.00;;;6.50;99.90;;;;;;5039856;28;20048;-87
2022/01/15 05:36:06;;;;;;;0.43;0.10;;;8.00;99.90;;;;;;5039514;28;20044;-87
2022/01/15 05:38:31;;;;;;;0.00;0.00;;;6.40;99.90;;;;;;5055777;28;20048;-87
2022/01/15 05:40:57;;;;;;;0.00;0.00;;;6.70;99.90;;;;;;5038833;28;20041;-87
2022/01/15 05:43:23;;;;;;;0.00;0.00;;;6.40;99.90;;;;;;5039107;28;20067;-87
2022/01/15 05:45:49;;;;;;;0.00;0.00;;;6.50;99.90;;;;;;5039426;28;20045;-87
2022/01/15 05:48:16;;;;;;;0.00;0.00;;;6.30;99.90;;;;;;5055961;28;20041;-87
2022/01/15 05:50:42;;;;;;;0.00;0.00;;;6.70;99.90;;;;;;5055388;28;20098;-87
2022/01/15 05:53:08;;;;;;;0.00;0.00;;;6.40;99.90;;;;;;5039138;28;20087;-87
2022/01/15 05:55:33;;;;;;;0.00;0.00;;;6.30;99.90;;;;;;5055849;28;20579;-87
2022/01/15 05:57:59;;;;;;;0.00;0.00;;;6.40;99.90;;;;;;5055758;28;20048;-87
2022/01/15 06:00:25;;;;;;;0.08;0.00;;;6.50;99.90;;;;;;5039149;28;20443;-87
2022/01/15 06:02:50;;;;;;;0.00;0.00;;;6.20;99.90;;;;;;5055355;28;20083;-87
2022/01/15 06:05:16;;;;;;;0.00;0.00;;;6.60;99.90;;;;;;5038231;28;20114;-88
2022/01/15 06:07:42;;;;;;;0.00;0.00;;;6.30;99.90;;;;;;5037565;28;20140;-86
2022/01/15 06:10:08;;;;;;;0.00;0.00;;;6.40;99.90;;;;;;5054247;28;20055;-87
2022/01/15 06:12:42;;;;;;;3.03;0.20;;;6.30;99.90;;;;;;5037464;28;20044;-87
2022/01/15 06:15:09;;;;;;;0.00;0.00;;;6.30;99.90;;;;;;5054368;28;20128;-87
2022/01/15 06:17:34;;;;;;;0.00;0.00;;;6.30;99.90;;;;;;5037483;28;20048;-87
2022/01/15 06:20:00;;;;;;;0.00;0.00;;;6.30;99.90;;;;;;5037448;28;20102;-87
2022/01/15 06:22:26;;;;;;;0.00;0.00;;;6.30;99.90;;;;;;5037129;28;20037;-87
2022/01/15 06:24:52;;;;;;;0.00;0.00;;;6.30;99.90;;;;;;5054010;28;20106;-87
2022/01/15 06:27:19;;;;;;;0.10;0.10;;;6.40;99.90;;;;;;5037002;28;20120;-87
2022/01/15 06:29:50;;;;;;;0.00;0.00;;;6.40;99.90;;;;;;5053623;28;20145;-87
2022/01/15 06:32:16;;;;;;;0.00;0.00;;;6.30;99.90;;;;;;5053420;28;20500;-87
2022/01/15 06:34:42;;;;;;;0.00;0.00;;;6.40;99.90;;;;;;5037382;28;20076;-87
2022/01/15 06:37:07;;;;;;;0.00;0.00;;;6.40;99.90;;;;;;5053866;28;20392;-88
2022/01/15 06:39:33;;;;;;;0.00;0.00;;;6.60;99.90;;;;;;5035475;28;20048;-88
2022/01/15 06:42:00;;;;;;;0.30;0.30;;;6.20;99.90;;;;;;5051965;28;20084;-87
2022/01/15 06:44:26;;;;;;;0.00;0.00;;;6.10;99.90;;;;;;5035844;28;20504;-87
2022/01/15 06:46:52;;;;;;;0.00;0.00;;;6.20;99.90;;;;;;5035253;28;20045;-87
2022/01/15 06:49:18;;;;;;;0.00;0.00;;;6.40;99.90;;;;;;5052931;28;20404;-87
2022/01/15 06:51:44;;;;;;;0.00;0.00;;;6.10;99.90;;;;;;5036660;28;20102;-88
2022/01/15 06:54:09;;;;;;;0.10;0.10;;;6.10;99.90;;;;;;5036893;28;20396;-87
2022/01/15 06:56:35;;;;;;;0.00;0.00;;;6.30;99.90;;;;;;5037166;28;20147;-87
2022/01/15 06:59:01;;;;;;;3.72;0.20;;;6.00;99.90;;;;;;5053518;28;20094;-87
2022/01/15 07:01:27;;;;;;;0.00;0.00;;;7.00;99.90;;;;;;5036742;28;20056;-87
2022/01/15 07:03:52;;;;;;;1.75;0.13;;;6.30;99.90;;;;;;5036735;28;20051;-87
2022/01/15 07:06:18;;;;;;;0.00;0.00;;;6.10;99.90;;;;;;5013196;28;1164826;-87
2022/01/15 07:08:44;;;;;;;0.15;0.15;;;6.10;99.90;;;;;;5054622;28;20799;-88
2022/01/15 07:11:10;;;;;;;1.75;0.30;;;6.10;99.90;;;;;;5054331;28;20045;-87
2022/01/15 07:13:35;;;;;;;0.00;0.00;;;6.10;99.90;;;;;;5037919;28;20131;-88
2022/01/15 07:16:01;;;;;;;1.20;0.65;;;6.10;99.90;;;;;;5036543;28;20098;-87
2022/01/15 07:18:27;;;;;;;0.00;0.00;;;6.20;99.90;;;;;;5035484;28;20049;-87
2022/01/15 07:20:53;;;;;;;0.00;0.00;;;6.20;99.90;;;;;;5052501;28;20055;-88
2022/01/15 07:23:19;;;;;;;0.00;0.00;;;6.00;99.90;;;;;;5053825;28;20088;-87
2022/01/15 07:25:45;;;;;;;0.60;0.10;;;6.00;99.90;;;;;;5037025;28;20147;-87
2022/01/15 07:28:11;;;;;;;0.00;0.00;;;6.20;99.90;;;;;;5036952;28;20539;-88
2022/01/15 07:30:36;;;;;;;0.00;0.00;;;6.00;99.90;;;;;;5036888;28;20057;-88
2022/01/15 07:33:02;;;;;;;0.20;0.10;;;6.00;99.90;;;;;;5037243;28;20053;-88
2022/01/15 07:35:28;;;;;;;0.00;0.00;;;6.00;99.90;;;;;;5053460;28;20037;-87
2022/01/15 07:37:55;;;;;;;0.90;0.40;;;6.00;99.90;;;;;;5036973;28;20558;-87
2022/01/15 07:40:20;;;;;;;3.30;0.00;;;6.00;99.90;;;;;;5053460;28;20055;-87
2022/01/15 07:42:46;;;;;;;0.20;0.20;;;6.00;99.90;;;;;;5035758;28;20413;-87
2022/01/15 07:45:14;;;;;;;0.00;0.00;;;6.00;99.90;;;;;;5053320;28;20103;-87
2022/01/15 07:47:40;;;;;;;0.00;0.00;;;5.90;99.90;;;;;;5053108;28;20044;-87
2022/01/15 07:50:13;;;;;;;1.50;1.10;;;6.00;99.90;;;;;;5053750;28;20433;-88
2022/01/15 07:52:39;;;;;;;0.20;0.20;;;6.00;99.90;;;;;;5037096;28;20036;-88
2022/01/15 07:55:05;;;;;;;0.00;0.00;;;5.90;99.90;;;;;;5036843;28;20064;-87
2022/01/15 07:57:31;;;;;;;0.00;0.00;;;6.00;99.90;;;;;;5053406;28;20063;-87
2022/01/15 07:59:57;;;;;;;0.17;0.10;;;6.00;99.90;;;;;;5036905;28;20049;-87
2022/01/15 08:02:22;;;;;;;0.10;0.10;;;6.00;99.90;;;;;;5052717;28;20052;-87
2022/01/15 08:04:48;;;;;;;0.35;0.20;;;6.10;99.90;;;;;;5036464;28;20056;-87
2022/01/15 08:07:14;;;;;;;0.00;0.00;;;6.80;99.90;;;;;;5036920;28;20045;-87
2022/01/15 08:09:40;;;;;;;0.00;0.00;;;6.00;99.90;;;;;;5053097;28;20071;-87
2022/01/15 08:12:06;;;;;;;0.30;0.30;;;5.90;99.90;;;;;;5036403;28;20079;-87
2022/01/15 08:14:32;;;;;;;0.25;0.00;;;6.00;99.90;;;;;;5036709;28;20382;-86
2022/01/15 08:16:58;;;;;;;0.00;0.00;;;6.00;99.90;;;;;;5053071;28;20045;-86
2022/01/15 08:19:23;;;;;;;0.35;0.32;;;5.90;99.90;;;;;;5053339;28;20481;-86
2022/01/15 08:21:49;;;;;;;0.00;0.00;;;7.30;99.90;;;;;;5052652;28;20087;-86
2022/01/15 08:24:15;;;;;;;0.00;0.00;;;5.90;99.90;;;;;;5036020;28;20051;-86
2022/01/15 08:26:41;;;;;;;3.20;0.55;;;5.90;99.90;;;;;;5052845;28;20093;-86
2022/01/15 08:29:06;;;;;;;1.10;0.43;;;5.90;99.90;;;;;;5052801;28;20045;-86
2022/01/15 08:31:32;;;;;;;0.05;0.05;;;6.10;99.90;;;;;;5035671;28;20048;-87
2022/01/15 08:33:58;;;;;;;0.00;0.00;;;5.90;99.90;;;;;;5052925;28;20049;-87
2022/01/15 08:36:24;;;;;;;0.30;0.30;;;5.90;99.90;;;;;;5052727;28;20040;-86
2022/01/15 08:38:50;;;;;;;0.20;0.10;;;5.80;99.90;;;;;;5052908;28;20041;-86
2022/01/15 08:41:16;;;;;;;1.75;0.20;;;5.80;99.90;;;;;;5053043;28;20556;-86
2022/01/15 08:43:43;;;;;;;0.00;0.00;;;5.80;99.90;;;;;;5052739;28;20048;-86
2022/01/15 08:46:09;;;;;;;0.70;0.65;;;5.70;99.90;;;;;;5035868;28;20041;-86
2022/01/15 08:48:35;;;;;;;0.00;0.00;;;6.10;99.90;;;;;;5035978;28;20064;-86
2022/01/15 08:51:01;;;;;;;0.73;0.50;;;5.70;99.90;;;;;;5035535;28;20083;-87
2022/01/15 08:53:27;;;;;;;0.00;0.00;;;5.80;99.90;;;;;;5052141;28;20052;-86
2022/01/15 08:55:53;;;;;;;0.30;0.30;;;5.80;99.90;;;;;;5036045;28;20049;-87
2022/01/15 08:58:19;;;;;;;0.30;0.00;;;5.70;99.90;;;;;;5052596;28;20127;-86
2022/01/15 09:00:46;;;;;;;5.00;0.52;;;5.80;99.90;;;;;;5035463;28;20091;-86
2022/01/15 09:03:12;;;;;;;0.28;0.10;;;5.80;99.90;;;;;;5034780;28;20056;-86
2022/01/15 09:05:38;;;;;;;0.52;0.17;;;5.80;99.90;;;;;;5052491;28;20420;-87
2022/01/15 09:08:05;;;;;;;0.32;0.32;;;5.80;99.90;;;;;;5052270;28;20497;-87
2022/01/15 09:10:32;;;;;;;0.00;0.00;;;5.80;99.90;;;;;;5052163;28;20033;-86
2022/01/15 09:12:58;;;;;;;0.00;0.00;;;5.80;99.90;;;;;;5035802;28;20045;-86
2022/01/15 09:15:24;;;;;;;0.20;0.20;;;5.80;99.90;;;;;;5036130;28;20155;-87
2022/01/15 09:17:50;;;;;;;0.15;0.15;;;5.80;99.90;;;;;;5052325;28;20047;-87
2022/01/15 09:20:16;;;;;;;0.08;0.05;;;5.80;99.90;;;;;;5052298;28;20048;-87
2022/01/15 09:22:42;;;;;;;0.90;0.20;;;6.70;99.90;;;;;;5035365;28;20041;-87
2022/01/15 09:25:08;;;;;;;0.00;0.00;;;5.80;99.90;;;;;;5052351;28;20053;-87
2022/01/15 09:30:19;;;;;;;0.05;0.05;;;5.80;99.90;;;;;;5052052;28;20049;-87
2022/01/15 09:32:46;;;;;;;0.00;0.00;;;5.60;99.90;;;;;;5052722;28;20052;-87
2022/01/15 09:35:14;;;;;;;0.60;0.20;;;5.70;99.90;;;;;;5035699;28;20576;-87
2022/01/15 09:37:40;;;;;;;0.35;0.15;;;5.70;99.90;;;;;;5052058;28;20477;-87
2022/01/15 09:40:07;;;;;;;0.00;0.00;;;5.70;99.90;;;;;;5035304;28;20041;-87
2022/01/15 09:42:33;;;;;;;0.17;0.10;;;5.70;99.90;;;;;;5051733;28;20175;-87
2022/01/15 09:45:00;;;;;;;0.00;0.00;;;5.60;99.90;;;;;;5052241;28;20540;-87
2022/01/15 09:47:28;;;;;;;2.60;0.45;;;5.60;99.90;;;;;;5035493;28;20099;-88
2022/01/15 09:49:54;;;;;;;0.00;0.00;;;5.60;99.90;;;;;;5052867;28;20401;-87
2022/01/15 09:52:20;;;;;;;0.00;0.00;;;5.90;99.90;;;;;;5035497;28;20496;-87
2022/01/15 09:54:46;;;;;;;0.65;0.00;;;5.70;99.90;;;;;;5035387;28;20045;-88
2022/01/15 09:57:12;;;;;;;0.90;0.55;;;5.30;99.90;;;;;;5033705;28;20493;-87
2022/01/15 09:59:38;;;;;;;0.10;0.00;;;5.60;99.90;;;;;;5033975;28;20075;-87
2022/01/15 10:02:05;;;;;;;0.00;0.00;;;5.60;99.90;;;;;;5033683;28;20408;-88
2022/01/15 10:04:32;;;;;;;0.00;0.00;;;5.60;99.90;;;;;;5050054;28;20064;-88
2022/01/15 10:07:15;;;;;;;2.35;0.65;;;5.60;99.90;;;;;;5036968;28;20041;-87
2022/01/15 10:09:45;;;;;;;1.13;0.35;;;5.50;99.90;;;;;;5053091;28;20143;-87
2022/01/15 10:12:22;;;;;;;0.00;0.00;;;5.90;99.90;;;;;;5035056;28;20052;-87
2022/01/15 10:14:47;;;;;;;0.00;0.00;;;5.40;99.90;;;;;;5035538;28;20064;-88
2022/01/15 10:17:29;;;;;;;0.17;0.10;;;5.60;99.90;;;;;;5055209;28;20040;-87
2022/01/15 10:20:00;;;;;;;0.00;0.00;;;5.60;99.90;;;;;;5053340;28;20124;-87
2022/01/15 10:22:27;;;;;;;0.30;0.13;;;5.70;99.90;;;;;;5054243;28;20439;-87
2022/01/15 10:25:01;;;;;;;1.75;1.23;;;6.20;99.90;;;;;;5037061;28;20060;-87
2022/01/15 10:27:30;;;;;;;1.07;0.10;;;5.50;99.90;;;;;;5052764;28;20089;-88
2022/01/15 10:30:14;;;;;;;0.82;0.60;;;5.50;99.90;;;;;;5037456;28;20114;-87
2022/01/15 10:32:59;;;;;;;0.15;0.15;;;5.50;99.90;;;;;;5037998;28;20045;-87
2022/01/15 10:35:30;;;;;;;0.43;0.30;;;5.50;99.90;;;;;;5053324;28;20136;-88
2022/01/15 10:38:09;;;;;;;0.10;0.03;;;5.70;99.90;;;;;;5035115;28;20488;-87
2022/01/15 10:40:39;;;;;;;0.00;0.00;;;5.60;99.90;;;;;;5054920;28;20103;-87
2022/01/15 10:43:05;;;;;;;0.10;0.10;;;6.10;99.90;;;;;;5037989;28;20485;-87
2022/01/15 10:45:34;;;;;;;0.57;0.45;;;6.30;99.90;;;;;;5038292;28;20044;-87
2022/01/15 10:48:03;;;;;;;0.10;0.10;;;5.50;99.90;;;;;;5037745;28;20497;-87
2022/01/15 10:50:36;;;;;;;0.30;0.03;;;5.00;99.90;;;;;;5038030;28;20056;-87
2022/01/15 10:53:10;;;;;;;0.10;0.00;;;5.60;99.90;;;;;;5038169;28;20128;-88
2022/01/15 10:55:37;;;;;;;0.00;0.00;;;5.60;99.90;;;;;;5054699;28;20041;-87
2022/01/15 10:58:13;;;;;;;0.00;0.00;;;5.60;99.90;;;;;;5037962;28;20072;-87
2022/01/15 11:00:41;;;;;;;0.25;0.20;;;5.60;99.90;;;;;;5055024;28;20083;-87
2022/01/15 11:03:10;;;;;;;0.10;0.10;;;5.60;99.90;;;;;;5054273;28;20049;-87
2022/01/15 11:05:38;;;;;;;0.30;0.20;;;6.20;99.90;;;;;;5054011;28;20060;-87
2022/01/15 11:08:08;;;;;;;0.08;0.08;;;6.00;99.90;;;;;;5038100;28;20476;-87
2022/01/15 11:10:42;;;;;;;0.85;0.38;;;5.50;99.90;;;;;;5037884;28;20489;-87
2022/01/15 11:13:11;;;;;;;0.00;0.00;;;5.50;99.90;;;;;;5054646;28;20086;-86
2022/01/15 11:15:43;;;;;;;0.70;0.20;;;5.50;99.90;;;;;;5054551;28;20131;-87
2022/01/15 11:18:14;;;;;;;0.80;0.00;;;5.50;99.90;;;;;;5036128;28;20393;-87
2022/01/15 11:20:45;;;;;;;0.10;0.10;;;5.50;99.90;;;;;;5054559;28;20049;-87
2022/01/15 11:23:12;;;;;;;0.20;0.20;;;5.50;99.90;;;;;;5054530;28;20049;-87
2022/01/15 11:25:38;;;;;;;1.25;0.88;;;5.60;99.90;;;;;;5037612;28;20135;-87
2022/01/15 11:28:05;;;;;;;0.20;0.20;;;5.50;99.90;;;;;;5037365;28;20053;-87
2022/01/15 11:30:32;;;;;;;0.00;0.00;;;5.50;99.90;;;;;;5037057;28;20114;-87
2022/01/15 11:32:59;;;;;;;0.20;0.20;;;5.50;99.90;;;;;;5037605;28;20508;-87
2022/01/15 11:35:45;;;;;;;0.20;0.20;;;5.50;99.90;;;;;;5053981;28;20055;-87
2022/01/15 11:38:31;;;;;;;0.98;0.45;;;5.50;99.90;;;;;;5053935;28;20049;-87
2022/01/15 11:40:57;;;;;;;0.40;0.40;;;5.50;99.90;;;;;;5053709;28;20053;-87
2022/01/15 11:43:26;;;;;;;0.38;0.10;;;5.50;99.90;;;;;;5036873;28;20098;-87
2022/01/15 11:45:57;;;;;;;0.20;0.20;;;5.60;99.90;;;;;;5053789;28;20554;-87
2022/01/15 11:48:33;;;;;;;3.15;0.20;;;5.70;99.90;;;;;;5053791;28;20101;-87
2022/01/15 11:51:14;;;;;;;0.28;0.28;;;5.50;99.90;;;;;;5053242;28;20044;-86
2022/01/15 11:53:52;;;;;;;0.00;0.00;;;5.50;99.90;;;;;;5037123;28;20053;-87
2022/01/15 11:56:26;;;;;;;0.38;0.38;;;5.50;99.90;;;;;;5036941;28;20052;-87
2022/01/15 11:58:57;;;;;;;0.00;0.00;;;5.50;99.90;;;;;;5054016;28;20366;-86
2022/01/15 12:01:39;;;;;;;0.05;0.05;;;5.50;99.90;;;;;;5037125;28;20041;-88
2022/01/15 12:04:41;;;;;;;0.28;0.10;;;5.60;99.90;;;;;;5037179;28;20177;-90
2022/01/15 12:07:18;;;;;;;0.22;0.22;;;5.40;99.90;;;;;;4977485;28;20056;-92
2022/01/15 12:09:46;;;;;;;0.45;0.45;;;5.40;99.90;;;;;;4958420;28;20658;-89
2022/01/15 12:12:34;;;;;;;0.00;0.00;;;5.40;99.90;;;;;;4960618;28;20057;-90
2022/01/15 12:15:04;;;;;;;1.20;0.32;;;5.40;99.90;;;;;;4958117;28;20054;-89
2022/01/15 12:17:34;;;;;;;0.35;0.35;;;5.40;99.90;;;;;;4976006;28;20477;-89
2022/01/15 12:20:47;;;;;;;0.75;0.10;;;5.40;99.90;;;;;;4945083;28;20060;-92
2022/01/15 12:23:21;;;;;;;1.45;0.40;;;5.40;99.90;;;;;;4930353;29;20130;-90
2022/01/15 12:25:59;;;;;;;0.40;0.40;;;5.40;99.90;;;;;;4922754;29;20519;-91
2022/01/15 12:28:27;;;;;;;0.03;0.03;;;5.40;99.90;;;;;;4903270;29;20051;-88
2022/01/15 12:30:57;;;;;;;0.57;0.20;;;5.40;99.90;;;;;;4930027;29;20044;-87
2022/01/15 12:33:23;;;;;;;0.55;0.45;;;5.40;99.90;;;;;;4910089;29;20052;-91
2022/01/15 12:35:52;;;;;;;0.10;0.10;;;5.30;99.90;;;;;;4907805;29;20059;-87
2022/01/15 12:38:26;;;;;;;0.15;0.08;;;5.30;99.90;;;;;;4900257;29;20067;-87
2022/01/15 12:40:55;;;;;;;0.00;0.00;;;5.30;99.90;;;;;;4926738;29;20428;-86
2022/01/15 12:43:28;;;;;;;1.90;0.40;;;5.30;99.90;;;;;;4944762;29;20048;-86
2022/01/15 12:45:58;;;;;;;0.90;0.55;;;5.30;99.90;;;;;;4942947;29;20130;-86
2022/01/15 12:48:31;;;;;;;0.00;0.00;;;5.40;99.90;;;;;;4929457;29;20180;-85
2022/01/15 12:50:59;;;;;;;0.45;0.45;;;5.30;99.90;;;;;;4948238;29;20075;-85
2022/01/15 12:53:29;;;;;;;6.63;0.57;;;5.10;99.90;;;;;;4980670;28;20062;-86
2022/01/15 12:55:55;;;;;;;1.98;0.52;;;5.60;99.90;;;;;;5030485;28;20052;-86
2022/01/15 12:58:23;;;;;;;0.45;0.38;;;5.30;99.90;;;;;;5030546;28;20056;-86
2022/01/15 13:00:51;;;;;;;2.40;0.10;;;5.40;99.90;;;;;;5030520;28;20069;-86
2022/01/15 13:03:25;;;;;;;0.10;0.10;;;5.40;99.90;;;;;;5025499;28;20049;-86
2022/01/15 13:05:54;;;;;;;0.63;0.30;;;5.40;99.90;;;;;;5033156;28;20452;-85
2022/01/15 13:08:28;;;;;;;0.03;0.00;;;5.40;99.90;;;;;;5050010;28;20127;-86
2022/01/15 13:11:04;;;;;;;0.35;0.35;;;5.60;99.90;;;;;;5050452;28;20041;-86
2022/01/15 13:13:34;;;;;;;0.00;0.00;;;5.40;99.90;;;;;;5034151;28;20088;-85
2022/01/15 13:16:20;;;;;;;0.60;0.60;;;5.40;99.90;;;;;;5050226;28;20439;-86
2022/01/15 13:18:53;;;;;;;0.10;0.10;;;5.40;99.90;;;;;;5048581;28;20412;-86
2022/01/15 13:21:21;;;;;;;0.40;0.30;;;5.40;99.90;;;;;;5035087;28;20055;-86
2022/01/15 13:23:50;;;;;;;2.83;0.68;;;5.30;99.90;;;;;;5052258;28;20055;-87
2022/01/15 13:26:21;;;;;;;0.75;0.15;;;5.30;99.90;;;;;;5052265;28;20106;-87
2022/01/15 13:28:48;;;;;;;0.00;0.00;;;5.30;99.90;;;;;;5052387;28;20400;-86
2022/01/15 13:31:14;;;;;;;4.05;0.10;;;5.20;99.90;;;;;;5035733;28;20041;-86
2022/01/15 13:33:43;;;;;;;0.10;0.10;;;5.60;99.90;;;;;;5035241;28;20055;-86